Time;durP1;ratioP1;P1;durP2;ratioP2;P2;SDS_P1;SDS_P2;PMS_P1;PMS_P2;Temp;Humidity;BMP_temperature;BMP_pressure;BME280_temperature;BME280_humidity;BME280_pressure;Samples;Min_cycle;Max_cycle;Signal;HPM_P1;HPM_P2
2023/04/23 00:00:49;;;;;;;16.20;14.60;;;14.40;97.80;;;;;;5118069;28;20457;-58
2023/04/23 00:03:18;;;;;;;15.27;13.80;;;14.40;97.70;;;;;;5117129;28;20915;-58
2023/04/23 00:05:45;;;;;;;16.63;14.97;;;14.40;97.70;;;;;;5117114;28;20439;-58
2023/04/23 00:08:16;;;;;;;16.10;14.10;;;14.40;97.60;;;;;;5123452;22;20477;-65
2023/04/23 00:10:44;;;;;;;14.50;12.97;;;14.40;97.60;;;;;;5076951;28;20490;-64
2023/04/23 00:13:11;;;;;;;15.60;14.00;;;14.30;97.50;;;;;;5077482;28;20456;-64
2023/04/23 00:15:38;;;;;;;15.67;14.03;;;14.30;97.50;;;;;;5059004;28;21011;-65
2023/04/23 00:18:05;;;;;;;13.73;12.30;;;14.30;97.50;;;;;;5077195;28;20452;-65
2023/04/23 00:20:33;;;;;;;14.67;12.97;;;14.30;97.40;;;;;;5076218;28;20941;-64
2023/04/23 00:23:01;;;;;;;15.07;13.57;;;14.20;97.50;;;;;;5076873;28;20517;-64
2023/04/23 00:25:30;;;;;;;14.47;12.40;;;14.20;97.60;;;;;;5076625;28;20817;-65
2023/04/23 00:27:57;;;;;;;14.30;12.80;;;14.10;97.60;;;;;;5058554;28;20449;-65
2023/04/23 00:30:24;;;;;;;18.40;13.13;;;14.10;97.70;;;;;;5058544;28;20528;-65
2023/04/23 00:32:51;;;;;;;13.37;12.07;;;14.10;97.70;;;;;;5076384;28;20473;-64
2023/04/23 00:35:19;;;;;;;16.13;13.13;;;14.10;97.70;;;;;;5076596;28;20437;-65
2023/04/23 00:37:47;;;;;;;14.80;13.30;;;14.10;97.80;;;;;;5076104;28;20583;-65
2023/04/23 00:40:14;;;;;;;15.77;12.53;;;14.10;97.80;;;;;;5076164;28;20485;-65
2023/04/23 00:42:43;;;;;;;16.50;13.73;;;14.10;97.80;;;;;;5076215;28;20472;-64
2023/04/23 00:45:12;;;;;;;16.13;14.20;;;14.10;97.80;;;;;;5075907;28;20445;-65
2023/04/23 00:47:40;;;;;;;18.40;13.97;;;14.10;97.80;;;;;;5076097;28;20440;-65
2023/04/23 00:50:10;;;;;;;18.47;13.87;;;14.10;97.80;;;;;;5075769;28;20445;-65
2023/04/23 00:52:38;;;;;;;18.63;14.83;;;14.10;97.80;;;;;;5076127;28;20468;-65
2023/04/23 00:55:08;;;;;;;15.90;14.30;;;14.00;97.70;;;;;;5076053;28;20502;-65
2023/04/23 00:57:36;;;;;;;17.20;14.50;;;14.00;97.80;;;;;;5075873;28;20549;-65
2023/04/23 01:00:06;;;;;;;16.87;15.07;;;14.00;97.80;;;;;;5076038;28;20544;-65
2023/04/23 01:02:35;;;;;;;16.83;13.23;;;14.00;97.90;;;;;;5075943;28;20460;-65
2023/04/23 01:05:05;;;;;;;15.37;13.53;;;14.00;98.10;;;;;;5076075;28;20457;-65
2023/04/23 01:07:35;;;;;;;16.57;13.20;;;14.00;98.10;;;;;;5075300;28;20452;-65
2023/04/23 01:10:03;;;;;;;17.93;14.60;;;14.00;98.10;;;;;;5075799;28;20905;-65
2023/04/23 01:12:30;;;;;;;15.90;14.13;;;14.00;98.20;;;;;;5078427;28;20965;-65
2023/04/23 01:15:00;;;;;;;15.97;14.40;;;14.00;98.20;;;;;;5081509;28;20448;-64
2023/04/23 01:17:30;;;;;;;23.40;16.67;;;14.00;98.20;;;;;;5082540;28;20551;-65
2023/04/23 01:19:58;;;;;;;15.57;13.33;;;14.00;98.20;;;;;;5071467;28;20878;-65
2023/04/23 01:22:27;;;;;;;17.70;15.77;;;14.00;98.20;;;;;;5088129;28;20449;-64
2023/04/23 01:24:55;;;;;;;16.03;14.43;;;14.00;98.10;;;;;;5083726;28;20471;-65
2023/04/23 01:27:23;;;;;;;16.40;14.80;;;14.00;98.10;;;;;;5067986;28;20441;-65
2023/04/23 01:29:50;;;;;;;16.80;15.00;;;14.00;98.00;;;;;;5079702;28;20515;-66
2023/04/23 01:32:18;;;;;;;15.73;14.10;;;14.00;97.90;;;;;;5078099;28;20522;-66
2023/04/23 01:34:47;;;;;;;17.80;15.90;;;13.90;97.70;;;;;;5077037;28;20452;-65
2023/04/23 01:37:16;;;;;;;16.30;14.70;;;13.90;97.80;;;;;;5076100;28;20483;-66
2023/04/23 01:39:45;;;;;;;16.53;14.83;;;13.80;97.90;;;;;;5057775;28;20996;-66
2023/04/23 01:42:16;;;;;;;17.60;15.83;;;13.80;98.00;;;;;;5075749;28;20984;-65
2023/04/23 01:44:43;;;;;;;18.57;15.87;;;13.70;98.00;;;;;;5075962;28;20495;-66
2023/04/23 01:47:11;;;;;;;17.50;15.80;;;13.70;98.00;;;;;;5058219;28;20444;-66
2023/04/23 01:49:38;;;;;;;18.57;16.70;;;13.70;98.10;;;;;;5075128;28;20448;-66
2023/04/23 01:52:08;;;;;;;18.03;15.73;;;13.60;98.10;;;;;;5075323;28;20464;-65
2023/04/23 01:54:36;;;;;;;17.53;15.00;;;13.60;98.10;;;;;;5074772;28;20452;-66
2023/04/23 01:57:07;;;;;;;17.27;15.57;;;13.60;98.00;;;;;;5074923;28;20484;-66
2023/04/23 01:59:34;;;;;;;17.20;15.63;;;13.60;98.00;;;;;;5074867;28;20486;-66
2023/04/23 02:02:01;;;;;;;15.70;14.20;;;13.60;97.80;;;;;;5075330;28;21003;-66
2023/04/23 02:04:29;;;;;;;16.53;14.77;;;13.60;97.70;;;;;;5075668;28;20452;-66
2023/04/23 02:06:57;;;;;;;18.33;16.43;;;13.60;97.60;;;;;;5057993;28;20983;-66
2023/04/23 02:09:25;;;;;;;16.53;14.87;;;13.50;97.60;;;;;;5074429;28;20452;-65
2023/04/23 02:11:52;;;;;;;17.33;15.63;;;13.50;97.60;;;;;;5074817;28;20468;-65
2023/04/23 02:14:22;;;;;;;19.07;17.07;;;13.50;97.60;;;;;;5074617;28;20973;-65
2023/04/23 02:16:50;;;;;;;18.27;16.27;;;13.50;98.00;;;;;;5074900;28;20503;-65
2023/04/23 02:19:17;;;;;;;18.30;16.37;;;13.50;97.80;;;;;;5098724;22;20999;-55
2023/04/23 02:21:44;;;;;;;15.97;14.37;;;13.50;97.70;;;;;;5093215;28;20975;-55
2023/04/23 02:24:10;;;;;;;18.20;15.17;;;13.40;97.80;;;;;;5107175;28;20463;-57
2023/04/23 02:26:37;;;;;;;17.90;16.10;;;13.50;98.00;;;;;;5113455;28;20947;-56
2023/04/23 02:29:04;;;;;;;20.00;18.00;;;13.40;98.20;;;;;;5113618;28;20989;-56
2023/04/23 02:31:32;;;;;;;21.70;17.47;;;13.40;98.40;;;;;;5113759;28;20454;-56
2023/04/23 02:33:59;;;;;;;19.70;17.77;;;13.40;98.60;;;;;;5113709;28;20466;-57
2023/04/23 02:36:27;;;;;;;21.20;19.10;;;13.40;98.80;;;;;;5116177;28;20472;-56
2023/04/23 02:38:54;;;;;;;20.80;18.47;;;13.40;99.00;;;;;;5117564;28;20800;-56
2023/04/23 02:41:21;;;;;;;21.53;19.33;;;13.40;99.20;;;;;;5117850;28;20443;-56
2023/04/23 02:43:47;;;;;;;19.73;17.73;;;13.30;99.50;;;;;;5117764;28;20463;-56
2023/04/23 02:46:14;;;;;;;20.13;18.07;;;13.30;99.70;;;;;;5117930;28;20452;-56
2023/04/23 02:48:42;;;;;;;25.77;22.97;;;13.30;99.80;;;;;;5117890;28;20447;-56
2023/04/23 02:51:11;;;;;;;23.60;21.13;;;13.20;99.90;;;;;;5117571;28;20958;-56
2023/04/23 02:53:38;;;;;;;20.90;18.90;;;13.20;99.90;;;;;;5117459;28;20998;-55
2023/04/23 02:56:06;;;;;;;23.37;20.90;;;13.20;99.90;;;;;;5117837;28;20446;-55
2023/04/23 02:58:32;;;;;;;20.33;18.00;;;13.20;99.90;;;;;;5117488;28;20478;-55
2023/04/23 03:01:01;;;;;;;18.30;16.40;;;13.20;99.90;;;;;;5118992;28;20545;-55
2023/04/23 03:03:30;;;;;;;19.77;17.73;;;13.10;99.90;;;;;;5118658;28;20466;-56
2023/04/23 03:05:58;;;;;;;17.20;15.23;;;13.10;99.90;;;;;;5118128;28;20821;-56
2023/04/23 03:08:25;;;;;;;18.00;16.07;;;13.00;99.90;;;;;;5117587;28;20442;-56
2023/04/23 03:10:51;;;;;;;21.27;18.93;;;13.00;99.90;;;;;;5117629;28;20468;-56
2023/04/23 03:13:18;;;;;;;18.43;16.53;;;13.00;99.90;;;;;;5117569;28;20462;-56
2023/04/23 03:15:45;;;;;;;18.83;16.90;;;13.00;99.90;;;;;;5117139;28;20982;-56
2023/04/23 03:18:12;;;;;;;17.97;16.07;;;13.00;99.90;;;;;;5116987;28;20490;-55
2023/04/23 03:20:38;;;;;;;20.20;16.93;;;13.00;99.90;;;;;;5117375;28;20800;-56
2023/04/23 03:23:06;;;;;;;19.23;17.23;;;13.10;99.90;;;;;;5117111;28;20536;-56
2023/04/23 03:25:33;;;;;;;18.40;15.23;;;13.10;99.90;;;;;;5117343;28;20450;-56
2023/04/23 03:28:00;;;;;;;21.73;16.60;;;13.10;99.90;;;;;;5117165;28;20463;-57
2023/04/23 03:30:28;;;;;;;17.27;15.53;;;13.10;99.90;;;;;;5116886;28;20942;-56
2023/04/23 03:32:56;;;;;;;18.50;16.20;;;13.20;99.90;;;;;;5117099;28;20470;-57
2023/04/23 03:35:23;;;;;;;19.43;16.80;;;13.20;99.90;;;;;;5117081;28;20453;-57
2023/04/23 03:37:50;;;;;;;17.60;15.70;;;13.20;99.80;;;;;;5116877;28;20478;-57
2023/04/23 03:40:18;;;;;;;18.80;16.90;;;13.20;99.70;;;;;;5116918;28;20453;-57
2023/04/23 03:42:45;;;;;;;18.37;15.80;;;13.20;99.60;;;;;;5116817;28;20453;-57
2023/04/23 03:45:13;;;;;;;18.80;16.77;;;13.20;99.60;;;;;;5116546;28;21005;-57
2023/04/23 03:47:39;;;;;;;17.47;15.57;;;13.20;99.60;;;;;;5116091;28;20499;-57
2023/04/23 03:50:08;;;;;;;17.33;15.40;;;13.20;99.60;;;;;;5116738;28;20453;-57
2023/04/23 03:52:34;;;;;;;17.60;15.80;;;13.30;99.50;;;;;;5116673;27;20447;-57
2023/04/23 03:55:01;;;;;;;18.93;16.60;;;13.20;99.40;;;;;;5116541;28;20439;-57
2023/04/23 03:57:29;;;;;;;16.73;15.03;;;13.20;99.40;;;;;;5116248;28;20474;-57
2023/04/23 03:59:56;;;;;;;17.60;15.77;;;13.20;99.40;;;;;;5116172;28;20962;-57
2023/04/23 04:02:23;;;;;;;17.20;15.17;;;13.20;99.50;;;;;;5116518;28;20462;-57
2023/04/23 04:04:50;;;;;;;14.40;12.97;;;13.20;99.60;;;;;;5116484;28;20866;-57
2023/04/23 04:07:17;;;;;;;17.63;15.80;;;13.20;99.60;;;;;;5116434;28;20530;-56
2023/04/23 04:09:45;;;;;;;15.80;14.27;;;13.20;99.70;;;;;;5116937;28;20504;-56
2023/04/23 04:12:12;;;;;;;15.90;13.73;;;13.20;99.70;;;;;;5116297;28;20546;-57
2023/04/23 04:14:40;;;;;;;16.20;14.50;;;13.20;99.70;;;;;;5116194;28;20469;-56
2023/04/23 04:17:07;;;;;;;15.40;14.00;;;13.20;99.90;;;;;;5115997;28;21010;-56
2023/04/23 04:19:33;;;;;;;17.63;15.40;;;13.10;99.80;;;;;;5115919;28;20545;-56
2023/04/23 04:22:02;;;;;;;14.57;13.07;;;13.20;99.90;;;;;;5116232;28;20450;-56
2023/04/23 04:24:31;;;;;;;19.03;15.83;;;13.10;99.90;;;;;;5116139;28;20463;-56
2023/04/23 04:26:58;;;;;;;15.40;13.87;;;13.00;99.90;;;;;;5116209;28;20450;-56
2023/04/23 04:29:25;;;;;;;16.33;13.90;;;13.00;99.90;;;;;;5116363;28;20454;-56
2023/04/23 04:31:54;;;;;;;14.00;12.70;;;13.00;99.90;;;;;;5115892;28;20447;-56
2023/04/23 04:34:20;;;;;;;16.80;15.10;;;13.00;99.90;;;;;;5115725;28;20466;-56
2023/04/23 04:36:47;;;;;;;19.00;14.40;;;13.00;99.90;;;;;;5115908;28;20450;-56
2023/04/23 04:39:14;;;;;;;16.20;14.50;;;13.00;99.90;;;;;;5115654;28;20482;-57
2023/04/23 04:41:41;;;;;;;15.80;14.10;;;13.00;99.90;;;;;;5115759;28;20477;-57
2023/04/23 04:44:08;;;;;;;15.17;13.57;;;13.00;99.90;;;;;;5115618;28;20467;-57
2023/04/23 04:46:39;;;;;;;17.03;15.33;;;13.10;99.90;;;;;;5115661;28;20443;-57
2023/04/23 04:49:08;;;;;;;15.20;13.70;;;13.00;99.90;;;;;;5115687;28;20438;-57
2023/04/23 04:51:35;;;;;;;19.43;15.50;;;13.00;99.90;;;;;;5115512;28;20447;-54
2023/04/23 04:54:01;;;;;;;16.27;14.80;;;13.10;99.90;;;;;;5115111;28;21010;-56
2023/04/23 04:56:28;;;;;;;16.90;13.73;;;13.10;99.90;;;;;;5115071;28;20958;-55
2023/04/23 04:58:55;;;;;;;16.30;14.60;;;13.10;99.90;;;;;;5114421;28;20882;-55
2023/04/23 05:01:23;;;;;;;14.70;13.30;;;13.20;99.90;;;;;;5115386;28;20496;-56
2023/04/23 05:03:50;;;;;;;15.00;13.60;;;13.20;99.90;;;;;;5115158;28;20478;-56
2023/04/23 05:06:18;;;;;;;14.93;13.50;;;13.20;99.90;;;;;;5115134;28;20796;-56
2023/04/23 05:08:47;;;;;;;14.30;12.90;;;13.20;99.90;;;;;;5115073;28;20439;-56
2023/04/23 05:11:13;;;;;;;16.07;13.10;;;13.30;99.90;;;;;;5114752;28;20485;-56
2023/04/23 05:13:40;;;;;;;13.17;12.00;;;13.30;99.90;;;;;;5114920;28;20840;-56
2023/04/23 05:16:07;;;;;;;17.17;13.10;;;13.30;99.90;;;;;;5114962;28;20507;-56
2023/04/23 05:18:34;;;;;;;13.80;12.47;;;13.30;99.90;;;;;;5114547;28;20490;-57
2023/04/23 05:21:00;;;;;;;12.60;11.50;;;13.40;99.90;;;;;;5114538;28;20952;-56
2023/04/23 05:23:28;;;;;;;13.50;11.87;;;13.40;99.90;;;;;;5114740;28;20533;-56
2023/04/23 05:25:57;;;;;;;13.23;11.80;;;13.40;99.90;;;;;;5114533;28;20500;-56
2023/04/23 05:28:24;;;;;;;13.07;11.77;;;13.50;99.90;;;;;;5114739;28;20449;-57
2023/04/23 05:30:51;;;;;;;12.00;10.90;;;13.50;99.90;;;;;;5114677;28;20450;-56
2023/04/23 05:33:18;;;;;;;12.67;11.47;;;13.60;99.90;;;;;;5114511;28;20466;-57
2023/04/23 05:35:44;;;;;;;14.03;12.53;;;13.70;99.90;;;;;;5114613;28;20446;-56
2023/04/23 05:38:11;;;;;;;12.57;11.27;;;13.70;99.90;;;;;;5114472;28;20478;-56
2023/04/23 05:40:39;;;;;;;12.83;11.53;;;13.70;99.70;;;;;;5114556;28;20454;-56
2023/04/23 05:43:06;;;;;;;11.23;10.13;;;13.70;99.50;;;;;;5114420;28;20469;-56
2023/04/23 05:45:34;;;;;;;12.20;11.00;;;13.80;99.40;;;;;;5114127;28;20796;-56
2023/04/23 05:48:01;;;;;;;13.90;10.97;;;13.80;99.30;;;;;;5114088;28;20932;-57
2023/04/23 05:50:27;;;;;;;12.57;11.40;;;13.80;99.30;;;;;;5114399;28;20479;-56
2023/04/23 05:52:54;;;;;;;13.23;11.93;;;13.90;99.20;;;;;;5114587;28;20480;-57
2023/04/23 05:55:22;;;;;;;12.50;11.30;;;13.90;99.20;;;;;;5115022;28;20940;-56
2023/04/23 05:57:50;;;;;;;13.43;11.93;;;13.90;99.10;;;;;;5115379;28;20510;-56
2023/04/23 06:00:17;;;;;;;19.03;10.90;;;13.90;99.10;;;;;;5116035;28;20447;-56
2023/04/23 06:02:44;;;;;;;13.27;10.90;;;14.00;99.20;;;;;;5115921;28;20472;-55
2023/04/23 06:05:11;;;;;;;12.17;10.50;;;14.00;99.10;;;;;;5115257;28;20557;-55
2023/04/23 06:07:38;;;;;;;11.53;10.53;;;14.10;99.10;;;;;;5115176;28;20447;-56
2023/04/23 06:10:06;;;;;;;11.97;10.77;;;14.20;99.10;;;;;;5114584;28;20439;-56
2023/04/23 06:12:32;;;;;;;12.20;10.17;;;14.30;99.00;;;;;;5114686;28;20447;-57
2023/04/23 06:15:00;;;;;;;11.90;10.70;;;14.30;98.70;;;;;;5114249;28;20505;-56
2023/04/23 06:17:27;;;;;;;11.77;10.50;;;14.40;98.50;;;;;;5114060;28;20529;-56
2023/04/23 06:19:54;;;;;;;10.07;9.17;;;14.40;98.40;;;;;;5114206;28;20457;-56
2023/04/23 06:22:20;;;;;;;12.50;11.20;;;14.50;98.30;;;;;;5114134;28;20439;-56
2023/04/23 06:24:47;;;;;;;11.23;10.13;;;14.50;98.20;;;;;;5113893;28;20516;-57
2023/04/23 06:27:14;;;;;;;10.40;9.30;;;14.60;98.30;;;;;;5113971;28;20443;-56
2023/04/23 06:29:41;;;;;;;10.37;9.37;;;14.70;98.20;;;;;;5113851;28;20448;-56
2023/04/23 06:32:09;;;;;;;11.30;9.73;;;14.80;98.00;;;;;;5113413;28;20927;-56
2023/04/23 06:34:36;;;;;;;9.93;8.90;;;14.80;97.70;;;;;;5113798;28;20555;-57
2023/04/23 06:37:03;;;;;;;9.70;8.90;;;14.90;97.60;;;;;;5113850;28;20442;-57
2023/04/23 06:39:29;;;;;;;9.57;8.70;;;14.90;97.30;;;;;;5113658;28;20478;-57
2023/04/23 06:41:56;;;;;;;10.17;9.17;;;14.90;97.30;;;;;;5113531;28;20454;-57
2023/04/23 06:44:23;;;;;;;9.60;8.77;;;15.00;97.40;;;;;;5113671;28;20463;-56
2023/04/23 06:46:50;;;;;;;11.27;9.63;;;15.00;97.20;;;;;;5114229;28;20923;-56
2023/04/23 06:49:18;;;;;;;9.43;8.53;;;15.00;97.10;;;;;;5113456;28;20936;-56
2023/04/23 06:51:45;;;;;;;9.63;8.77;;;15.10;97.10;;;;;;5113694;28;20447;-56
2023/04/23 06:54:11;;;;;;;9.70;8.90;;;15.20;97.10;;;;;;5113584;28;20467;-56
2023/04/23 06:56:38;;;;;;;10.07;9.27;;;15.20;96.90;;;;;;5113295;28;20446;-56
2023/04/23 06:59:05;;;;;;;8.97;8.03;;;15.20;96.80;;;;;;5113153;28;20477;-56
2023/04/23 07:01:32;;;;;;;12.23;9.80;;;15.20;96.80;;;;;;5113619;28;20462;-56
2023/04/23 07:03:58;;;;;;;10.63;9.10;;;15.30;96.80;;;;;;5113385;28;20467;-57
2023/04/23 07:06:27;;;;;;;10.10;8.53;;;15.30;96.90;;;;;;5113457;28;20454;-56
2023/04/23 07:08:54;;;;;;;9.37;8.40;;;15.30;97.00;;;;;;5113564;28;20467;-56
2023/04/23 07:11:20;;;;;;;8.80;8.00;;;15.30;97.10;;;;;;5113427;28;20443;-57
2023/04/23 07:13:47;;;;;;;10.40;9.50;;;15.30;97.10;;;;;;5113093;28;20903;-56
2023/04/23 07:16:14;;;;;;;10.23;9.23;;;15.30;97.20;;;;;;5113427;28;20443;-56
2023/04/23 07:18:41;;;;;;;10.20;8.40;;;15.30;97.30;;;;;;5113041;28;20483;-56
2023/04/23 07:21:08;;;;;;;10.43;8.17;;;15.40;97.40;;;;;;5113526;28;20447;-56
2023/04/23 07:23:36;;;;;;;10.53;8.90;;;15.40;97.30;;;;;;5117179;28;20463;-56
2023/04/23 07:26:02;;;;;;;8.27;7.47;;;15.50;97.30;;;;;;5117158;28;20442;-56
2023/04/23 07:28:29;;;;;;;10.00;8.77;;;15.60;97.40;;;;;;5116968;28;20435;-57
2023/04/23 07:30:56;;;;;;;9.10;8.20;;;15.70;97.40;;;;;;5117147;28;20545;-56
2023/04/23 07:33:24;;;;;;;7.90;7.17;;;15.70;97.30;;;;;;5116951;28;20470;-56
2023/04/23 07:35:51;;;;;;;7.40;6.70;;;15.80;97.20;;;;;;5116983;28;20446;-56
2023/04/23 07:38:18;;;;;;;8.83;7.60;;;16.00;97.00;;;;;;5116660;28;20502;-57
2023/04/23 07:40:46;;;;;;;6.50;5.90;;;16.10;96.90;;;;;;5116601;28;20450;-56
2023/04/23 07:43:13;;;;;;;6.53;5.80;;;16.30;96.40;;;;;;5116863;28;20467;-56
2023/04/23 07:45:40;;;;;;;5.43;4.57;;;16.40;95.80;;;;;;5116877;28;20504;-56
2023/04/23 07:48:07;;;;;;;5.40;4.90;;;16.60;95.60;;;;;;5116744;28;20447;-56
2023/04/23 07:50:33;;;;;;;9.40;5.67;;;16.80;95.50;;;;;;5116737;28;20450;-56
2023/04/23 07:53:00;;;;;;;7.60;5.27;;;17.00;94.90;;;;;;5116482;28;20469;-56
2023/04/23 07:55:27;;;;;;;5.63;4.70;;;17.10;94.10;;;;;;5116612;28;20443;-57
2023/04/23 07:57:55;;;;;;;5.00;4.57;;;17.20;93.80;;;;;;5116328;28;20454;-56
2023/04/23 08:00:22;;;;;;;5.63;4.97;;;17.40;93.50;;;;;;5116383;28;20427;-57
2023/04/23 08:02:50;;;;;;;8.00;4.90;;;17.50;93.10;;;;;;5116404;28;20440;-57
2023/04/23 08:05:17;;;;;;;4.83;4.40;;;17.60;93.00;;;;;;5116415;28;20470;-56
2023/04/23 08:07:43;;;;;;;6.43;3.90;;;17.80;92.10;;;;;;5116319;28;20443;-56
2023/04/23 08:10:10;;;;;;;4.80;4.03;;;17.90;91.60;;;;;;5116274;28;20435;-56
2023/04/23 08:12:37;;;;;;;4.40;3.67;;;18.00;91.20;;;;;;5115877;28;20841;-57
2023/04/23 08:15:06;;;;;;;5.00;4.43;;;18.20;91.00;;;;;;5114765;28;20439;-56
2023/04/23 08:17:33;;;;;;;5.10;3.73;;;18.40;90.50;;;;;;5115846;28;20954;-55
2023/04/23 08:19:59;;;;;;;7.07;4.13;;;18.50;89.80;;;;;;5115733;28;20881;-55
2023/04/23 08:22:26;;;;;;;5.27;4.23;;;18.70;88.30;;;;;;5116076;28;20447;-55
2023/04/23 08:24:53;;;;;;;6.83;4.57;;;18.80;88.90;;;;;;5115942;28;20470;-55
2023/04/23 08:27:19;;;;;;;3.80;3.50;;;18.90;87.50;;;;;;5115952;28;20451;-55
2023/04/23 08:29:46;;;;;;;6.77;3.90;;;19.00;87.70;;;;;;5115929;28;20449;-55
2023/04/23 08:32:14;;;;;;;5.13;3.03;;;19.10;85.80;;;;;;5115670;28;20454;-55
2023/04/23 08:34:41;;;;;;;7.37;3.80;;;19.10;85.20;;;;;;5114805;28;20470;-55
2023/04/23 08:37:07;;;;;;;5.03;3.40;;;19.20;84.70;;;;;;5115358;28;20874;-55
2023/04/23 08:39:34;;;;;;;7.07;3.43;;;19.40;85.90;;;;;;5115369;28;21009;-56
2023/04/23 08:42:09;;;;;;;4.30;3.17;;;19.60;84.60;;;;;;5115478;28;20478;-56
2023/04/23 08:44:40;;;;;;;6.80;3.70;;;19.80;83.60;;;;;;5115285;28;21002;-56
2023/04/23 08:47:10;;;;;;;6.90;3.80;;;20.10;82.70;;;;;;5115620;28;20438;-55
2023/04/23 08:49:41;;;;;;;6.53;3.10;;;20.40;79.60;;;;;;5115528;28;20435;-56
2023/04/23 08:52:15;;;;;;;3.97;3.20;;;20.60;78.70;;;;;;5115491;28;20501;-56
2023/04/23 08:54:47;;;;;;;7.47;3.10;;;20.90;77.70;;;;;;5115439;28;20482;-57
2023/04/23 08:57:16;;;;;;;4.50;2.57;;;21.10;76.20;;;;;;5115174;28;20935;-56
2023/04/23 08:59:44;;;;;;;3.60;2.30;;;21.30;73.20;;;;;;5116327;28;20479;-56
2023/04/23 09:02:11;;;;;;;8.53;2.90;;;21.40;73.70;;;;;;5116092;28;20520;-56
2023/04/23 09:04:40;;;;;;;5.50;3.20;;;21.60;71.10;;;;;;5115583;28;20827;-56
2023/04/23 09:07:10;;;;;;;4.03;3.00;;;21.70;70.90;;;;;;5115827;28;20796;-56
2023/04/23 09:09:37;;;;;;;3.93;2.80;;;21.70;69.90;;;;;;5114931;28;20940;-56
2023/04/23 09:12:05;;;;;;;3.43;3.00;;;21.80;70.60;;;;;;5115285;28;20537;-56
2023/04/23 09:14:32;;;;;;;5.80;2.90;;;22.00;69.70;;;;;;5115119;28;20506;-56
2023/04/23 09:16:59;;;;;;;4.20;2.87;;;22.10;68.30;;;;;;5114642;28;20818;-56
2023/04/23 09:19:27;;;;;;;5.87;2.50;;;22.20;67.60;;;;;;5114618;28;20483;-56
2023/04/23 09:21:55;;;;;;;3.93;2.77;;;22.40;64.90;;;;;;5115004;28;20478;-56
2023/04/23 09:24:23;;;;;;;2.73;2.53;;;22.50;63.80;;;;;;5114751;28;20494;-56
2023/04/23 09:26:52;;;;;;;2.70;2.20;;;22.70;63.70;;;;;;5114857;28;20817;-56
2023/04/23 09:29:22;;;;;;;4.43;2.30;;;22.80;62.00;;;;;;5114806;28;20450;-56
2023/04/23 09:31:50;;;;;;;3.33;2.40;;;22.80;61.20;;;;;;5114450;28;20824;-56
2023/04/23 09:34:18;;;;;;;4.47;2.27;;;22.80;60.90;;;;;;5114718;28;20474;-56
2023/04/23 09:36:45;;;;;;;4.30;2.50;;;22.80;60.10;;;;;;5114811;28;20459;-56
2023/04/23 09:39:14;;;;;;;3.43;1.80;;;22.70;59.60;;;;;;5114232;28;20858;-56
2023/04/23 09:41:41;;;;;;;2.40;1.80;;;22.70;59.30;;;;;;5115479;28;20538;-56
2023/04/23 09:44:08;;;;;;;4.00;2.33;;;22.70;58.50;;;;;;5113886;28;20462;-56
2023/04/23 09:46:36;;;;;;;3.00;1.90;;;22.70;58.60;;;;;;5114542;28;20505;-56
2023/04/23 09:49:06;;;;;;;5.40;2.40;;;22.70;58.90;;;;;;5114482;28;20450;-56
2023/04/23 09:51:35;;;;;;;3.77;1.83;;;22.90;58.20;;;;;;5114265;28;20465;-56
2023/04/23 09:54:02;;;;;;;7.20;2.60;;;23.10;57.30;;;;;;5114247;28;20471;-56
2023/04/23 09:56:31;;;;;;;2.83;2.07;;;23.20;56.40;;;;;;5114081;28;20952;-56
2023/04/23 09:58:58;;;;;;;3.57;2.17;;;23.30;57.20;;;;;;5114257;28;20478;-56
2023/04/23 10:01:29;;;;;;;3.70;1.70;;;23.30;56.20;;;;;;5114206;28;20823;-56
2023/04/23 10:03:56;;;;;;;4.77;1.80;;;23.40;55.80;;;;;;5113837;28;20502;-56
2023/04/23 10:06:30;;;;;;;5.20;1.80;;;23.50;54.30;;;;;;5114154;28;20446;-56
2023/04/23 10:08:57;;;;;;;2.80;1.30;;;23.40;52.10;;;;;;5114176;28;20443;-56
2023/04/23 10:11:25;;;;;;;2.03;1.40;;;23.20;51.80;;;;;;5113787;28;20963;-56
2023/04/23 10:13:54;;;;;;;2.77;1.27;;;23.10;51.00;;;;;;5113904;28;20886;-56
2023/04/23 10:16:23;;;;;;;3.03;1.30;;;23.00;51.40;;;;;;5114123;28;20442;-56
2023/04/23 10:18:51;;;;;;;2.00;0.80;;;23.10;52.10;;;;;;5113670;28;20458;-56
2023/04/23 10:21:20;;;;;;;3.67;1.33;;;23.30;50.60;;;;;;5114081;28;20455;-56
2023/04/23 10:23:49;;;;;;;2.30;1.60;;;23.50;50.60;;;;;;5113918;28;20470;-56
2023/04/23 10:26:17;;;;;;;4.13;1.70;;;23.60;49.70;;;;;;5113835;28;20446;-56
2023/04/23 10:28:47;;;;;;;1.83;1.13;;;23.70;50.20;;;;;;5113926;28;20454;-56
2023/04/23 10:31:19;;;;;;;2.70;1.40;;;23.80;50.50;;;;;;5114683;28;20514;-56
2023/04/23 10:33:49;;;;;;;3.37;1.70;;;24.00;49.70;;;;;;5113539;28;20832;-57
2023/04/23 10:36:17;;;;;;;3.20;1.63;;;24.00;49.10;;;;;;5113828;28;20486;-56
2023/04/23 10:38:45;;;;;;;4.07;1.00;;;24.10;50.10;;;;;;5113839;28;20558;-56
2023/04/23 10:41:17;;;;;;;4.63;1.70;;;24.30;48.10;;;;;;5113900;28;20431;-56
2023/04/23 10:43:44;;;;;;;4.37;1.40;;;24.50;47.90;;;;;;5113488;28;20863;-56
2023/04/23 10:46:31;;;;;;;2.57;1.20;;;24.40;47.20;;;;;;5113845;28;20442;-56
2023/04/23 10:49:12;;;;;;;7.17;1.53;;;24.50;48.20;;;;;;5113670;28;20438;-56
2023/04/23 10:51:39;;;;;;;3.57;1.77;;;24.80;47.50;;;;;;5113404;28;20950;-56
2023/04/23 10:54:08;;;;;;;2.03;1.10;;;25.20;47.00;;;;;;5113574;28;20459;-56
2023/04/23 10:56:37;;;;;;;3.40;1.47;;;25.40;44.50;;;;;;5114206;28;20818;-56
2023/04/23 10:59:06;;;;;;;2.53;1.10;;;25.90;43.10;;;;;;5117677;28;20792;-56
2023/04/23 11:01:34;;;;;;;2.67;0.87;;;26.40;42.00;;;;;;5117640;28;20542;-56
2023/04/23 11:04:19;;;;;;;2.87;1.30;;;26.60;41.40;;;;;;5117393;28;20470;-56
2023/04/23 11:06:57;;;;;;;2.90;1.40;;;26.80;40.40;;;;;;5099198;27;20538;-56
2023/04/23 11:09:39;;;;;;;1.10;0.97;;;26.70;39.90;;;;;;5097202;28;20439;-56
2023/04/23 11:12:09;;;;;;;2.60;1.00;;;26.60;40.40;;;;;;5095333;28;20458;-56
2023/04/23 11:14:41;;;;;;;1.90;1.20;;;26.20;40.30;;;;;;5096698;28;20503;-56
2023/04/23 11:17:11;;;;;;;3.07;1.20;;;25.80;41.10;;;;;;5111603;28;20445;-55
2023/04/23 11:19:39;;;;;;;4.40;1.50;;;25.70;42.70;;;;;;5116842;28;20889;-55
2023/04/23 11:22:08;;;;;;;4.93;1.13;;;25.50;43.30;;;;;;5117071;28;20803;-55
2023/04/23 11:24:40;;;;;;;3.30;1.27;;;25.40;42.10;;;;;;5117268;28;20463;-55
2023/04/23 11:27:09;;;;;;;3.43;1.20;;;25.40;41.70;;;;;;5117332;28;20955;-55
2023/04/23 11:29:38;;;;;;;3.73;1.43;;;25.50;41.90;;;;;;5117134;28;20546;-55
2023/04/23 11:32:09;;;;;;;4.10;1.23;;;25.70;41.00;;;;;;5117131;28;20489;-55
2023/04/23 11:34:38;;;;;;;0.80;0.77;;;25.90;40.70;;;;;;5116997;28;20868;-56
2023/04/23 11:37:05;;;;;;;3.40;1.07;;;26.10;40.10;;;;;;5116937;28;20446;-55
2023/04/23 11:39:32;;;;;;;1.60;0.90;;;26.10;39.70;;;;;;5116909;28;20485;-55
2023/04/23 11:42:02;;;;;;;3.30;1.53;;;26.10;38.90;;;;;;5116845;28;20442;-55
2023/04/23 11:44:29;;;;;;;2.30;1.10;;;26.00;40.30;;;;;;5116759;28;20475;-55
2023/04/23 11:46:59;;;;;;;1.77;1.10;;;25.70;40.50;;;;;;5116801;28;20450;-57
2023/04/23 11:49:26;;;;;;;3.43;1.00;;;25.60;41.60;;;;;;5116831;28;20503;-56
2023/04/23 11:51:54;;;;;;;3.17;1.13;;;25.60;41.40;;;;;;5116559;28;20447;-56
2023/04/23 11:54:26;;;;;;;5.70;1.40;;;25.50;40.90;;;;;;5116739;28;20471;-56
2023/04/23 11:56:54;;;;;;;2.43;1.10;;;25.40;41.80;;;;;;5116869;28;20525;-56
2023/04/23 11:59:20;;;;;;;4.50;1.17;;;25.40;42.20;;;;;;5116669;28;20453;-56
2023/04/23 12:01:49;;;;;;;4.83;1.27;;;25.50;40.70;;;;;;5116311;28;20939;-56
2023/04/23 12:04:18;;;;;;;2.50;1.27;;;25.40;39.30;;;;;;5116547;28;20467;-57
2023/04/23 12:06:47;;;;;;;2.73;1.40;;;25.40;40.90;;;;;;5116499;28;20450;-55
2023/04/23 12:09:17;;;;;;;3.13;1.37;;;25.70;41.40;;;;;;5115648;28;20442;-55
2023/04/23 12:11:45;;;;;;;2.20;1.10;;;26.00;40.20;;;;;;5116062;28;20450;-56
2023/04/23 12:14:13;;;;;;;2.20;1.00;;;26.50;39.10;;;;;;5115909;28;20817;-56
2023/04/23 12:16:42;;;;;;;3.13;1.30;;;27.00;37.70;;;;;;5116186;28;20458;-56
2023/04/23 12:19:09;;;;;;;2.93;1.10;;;27.80;38.00;;;;;;5115659;28;20939;-56
2023/04/23 12:21:48;;;;;;;3.13;1.17;;;28.80;35.70;;;;;;5115986;28;20999;-56
2023/04/23 12:24:16;;;;;;;2.33;0.70;;;29.80;31.10;;;;;;5115987;28;20470;-56
2023/04/23 12:26:43;;;;;;;2.23;1.00;;;30.70;30.10;;;;;;5115956;28;20449;-56
2023/04/23 12:29:12;;;;;;;2.40;1.20;;;31.20;28.40;;;;;;5116101;28;20871;-56
2023/04/23 12:31:39;;;;;;;1.73;1.20;;;31.90;28.20;;;;;;5116057;28;20446;-55
2023/04/23 12:34:07;;;;;;;3.70;0.97;;;32.30;28.00;;;;;;5115915;28;20470;-55
2023/04/23 12:36:36;;;;;;;5.63;1.17;;;32.10;26.40;;;;;;5115944;28;20450;-55
2023/04/23 12:39:28;;;;;;;2.87;1.20;;;31.80;26.50;;;;;;5116143;28;20457;-55